Time;durP1;ratioP1;P1;durP2;ratioP2;P2;SDS_P1;SDS_P2;PMS_P1;PMS_P2;Temp;Humidity;BMP_temperature;BMP_pressure;BME280_temperature;BME280_humidity;BME280_pressure;Samples;Min_cycle;Max_cycle;Signal;HPM_P1;HPM_P2
2022/09/26 00:00:30;;;;;;;5.45;1.60;;;;;;;12.85;nan;100766.56;5030194;28;20604;-55
2022/09/26 00:02:56;;;;;;;4.38;1.83;;;;;;;12.78;nan;100747.47;5024260;28;20045;-55
2022/09/26 00:05:21;;;;;;;4.40;1.90;;;;;;;12.82;nan;100743.78;5034128;28;20030;-53
2022/09/26 00:07:46;;;;;;;3.35;1.92;;;;;;;12.82;nan;100743.78;5035270;28;20381;-54
2022/09/26 00:10:12;;;;;;;2.95;1.65;;;;;;;12.85;nan;100751.59;5018536;28;20037;-55
2022/09/26 00:12:37;;;;;;;4.65;2.10;;;;;;;12.85;nan;100746.31;5028809;28;20405;-57
2022/09/26 00:15:03;;;;;;;4.65;2.03;;;;;;;12.87;nan;100735.69;5014865;28;20049;-50
2022/09/26 00:17:28;;;;;;;6.28;2.00;;;;;;;12.81;nan;100726.22;5027204;28;20515;-53
2022/09/26 00:19:53;;;;;;;6.35;2.45;;;;;;;12.80;nan;100729.81;5033673;28;20369;-55
2022/09/26 00:22:19;;;;;;;4.43;2.00;;;;;;;12.78;nan;100709.66;5031215;28;20022;-54
2022/09/26 00:24:44;;;;;;;5.25;1.85;;;;;;;12.35;nan;100636.72;5022331;28;20041;-55
2022/09/26 00:27:09;;;;;;;4.68;2.08;;;;;;;12.63;nan;100686.56;5024639;28;20116;-56
2022/09/26 00:29:35;;;;;;;7.30;2.10;;;;;;;12.68;nan;100690.72;5029028;28;20477;-54
2022/09/26 00:32:00;;;;;;;5.03;2.75;;;;;;;12.62;nan;100683.06;5018408;28;20121;-48
2022/09/26 00:34:25;;;;;;;5.78;2.17;;;;;;;12.58;nan;100680.63;5030402;28;20116;-54
2022/09/26 00:36:51;;;;;;;4.45;1.90;;;;;;;12.40;nan;100654.06;5021656;28;20049;-52
2022/09/26 00:39:17;;;;;;;5.60;1.90;;;;;;;12.47;nan;100659.06;5021718;28;20096;-54
2022/09/26 00:41:42;;;;;;;3.63;1.38;;;;;;;12.40;nan;100640.03;5028635;28;20033;-55
2022/09/26 00:44:38;;;;;;;5.47;1.80;;;;;;;12.51;nan;100650.13;5032033;28;20488;-52
2022/09/26 00:47:05;;;;;;;4.53;1.70;;;;;;;12.08;nan;100579.84;5024497;28;20028;-55
2022/09/26 00:49:39;;;;;;;4.68;2.22;;;;;;;12.45;nan;100629.25;5033136;28;20036;-53
2022/09/26 00:52:08;;;;;;;3.40;1.60;;;;;;;12.22;nan;100580.97;5032868;28;20120;-53
2022/09/26 00:54:35;;;;;;;3.28;1.52;;;;;;;12.54;nan;100635.00;5019982;28;20035;-51
2022/09/26 00:57:05;;;;;;;3.72;1.85;;;;;;;12.17;nan;100566.25;5032867;28;20033;-54
2022/09/26 00:59:34;;;;;;;4.35;1.58;;;;;;;12.28;nan;100579.84;5033878;28;20060;-51
2022/09/26 01:02:00;;;;;;;2.08;1.42;;;;;;;12.42;nan;100603.84;5017737;28;20034;-50
2022/09/26 01:04:27;;;;;;;4.70;1.25;;;;;;;12.35;nan;100582.13;5032525;28;20701;-57
2022/09/26 01:06:54;;;;;;;3.55;1.65;;;;;;;12.39;nan;100591.66;5024756;28;20393;-54
2022/09/26 01:09:19;;;;;;;3.88;1.63;;;;;;;12.46;nan;100591.38;5026017;28;20040;-55
2022/09/26 01:11:45;;;;;;;3.05;1.60;;;;;;;12.33;nan;100564.66;5017265;28;20030;-54
2022/09/26 01:14:12;;;;;;;4.93;1.90;;;;;;;12.52;nan;100596.41;5031663;28;20057;-55
2022/09/26 01:16:38;;;;;;;3.83;1.95;;;;;;;12.43;nan;100568.63;5027703;28;20073;-51
2022/09/26 01:19:19;;;;;;;5.68;2.10;;;;;;;12.12;nan;100503.13;5023578;28;20033;-53
2022/09/26 01:22:05;;;;;;;4.00;1.70;;;;;;;12.48;nan;100549.94;5032585;28;20041;-49
2022/09/26 01:25:22;;;;;;;3.05;1.38;;;;;;;12.49;nan;100554.28;5019952;28;20128;-56
2022/09/26 01:27:56;;;;;;;4.15;1.38;;;;;;;12.50;nan;100541.00;5016757;28;20452;-52
2022/09/26 01:30:27;;;;;;;6.95;1.52;;;;;;;12.48;nan;100537.59;5016582;28;20399;-55
2022/09/26 01:33:26;;;;;;;3.10;1.33;;;;;;;12.07;nan;100467.31;5044153;28;20029;-52
2022/09/26 01:36:18;;;;;;;3.60;1.63;;;;;;;12.46;nan;100520.97;5017435;28;20033;-54
2022/09/26 01:38:59;;;;;;;4.70;1.63;;;;;;;12.46;nan;100520.13;5020900;28;20064;-56
2022/09/26 01:41:38;;;;;;;5.35;1.40;;;;;;;12.17;nan;100460.72;5039282;28;20072;-51
2022/09/26 01:44:26;;;;;;;4.97;1.70;;;;;;;12.47;nan;100517.38;5031855;28;20037;-53
2022/09/26 01:47:12;;;;;;;5.85;2.00;;;;;;;12.46;nan;100520.97;5024922;28;20105;-58
2022/09/26 01:49:40;;;;;;;5.30;1.75;;;;;;;12.45;nan;100523.66;5026458;28;20494;-57
2022/09/26 01:52:08;;;;;;;3.70;1.85;;;;;;;12.43;nan;100535.13;5016639;28;20033;-51
2022/09/26 01:54:39;;;;;;;3.00;1.50;;;;;;;12.37;nan;100506.38;5021555;28;20037;-51
2022/09/26 01:57:11;;;;;;;3.00;1.60;;;;;;;12.28;nan;100484.84;5032072;28;20479;-55
2022/09/26 01:59:47;;;;;;;5.72;2.10;;;;;;;12.17;nan;100458.91;5037588;28;20279;-56
2022/09/26 02:02:19;;;;;;;6.43;2.05;;;;;;;12.11;nan;100439.88;5031782;28;20040;-54
2022/09/26 02:04:47;;;;;;;2.10;1.55;;;;;;;12.31;nan;100456.53;5025587;28;20065;-54
2022/09/26 02:07:17;;;;;;;2.80;1.58;;;;;;;12.49;nan;100483.03;5024337;28;20059;-54
2022/09/26 02:09:58;;;;;;;2.70;1.55;;;;;;;12.18;nan;100426.34;5030652;28;20061;-57
2022/09/26 02:12:32;;;;;;;5.93;2.22;;;;;;;12.51;nan;100476.75;5016079;28;20063;-55
2022/09/26 02:15:01;;;;;;;3.78;1.27;;;;;;;12.36;nan;100432.56;5042155;28;20049;-53
2022/09/26 02:17:30;;;;;;;6.28;2.00;;;;;;;12.51;nan;100457.41;5031387;28;20036;-52
2022/09/26 02:20:00;;;;;;;4.88;1.63;;;;;;;12.57;nan;100470.31;5014650;28;20139;-54
2022/09/26 02:22:29;;;;;;;4.18;1.60;;;;;;;12.13;nan;100372.06;5017388;28;20064;-53
2022/09/26 02:24:54;;;;;;;5.28;1.65;;;;;;;12.27;nan;100409.22;5030750;28;20488;-54
2022/09/26 02:27:20;;;;;;;2.35;1.40;;;;;;;12.55;nan;100458.97;5032444;28;20045;-53
2022/09/26 02:29:45;;;;;;;4.47;1.70;;;;;;;12.43;nan;100438.41;5031479;28;20041;-56
2022/09/26 02:32:14;;;;;;;4.22;1.65;;;;;;;12.23;nan;100397.94;5030536;28;20026;-56
2022/09/26 02:34:41;;;;;;;6.15;1.83;;;;;;;12.14;nan;100384.34;5024887;28;20037;-54
2022/09/26 02:37:08;;;;;;;4.65;1.77;;;;;;;12.62;nan;100448.03;5022901;28;20123;-56
2022/09/26 02:39:33;;;;;;;3.78;1.60;;;;;;;12.60;nan;100431.44;5017006;28;20042;-53
2022/09/26 02:42:09;;;;;;;7.70;1.80;;;;;;;12.63;nan;100440.97;5028360;28;20041;-55
2022/09/26 02:45:06;;;;;;;2.90;1.30;;;;;;;12.65;nan;100431.19;5018262;28;20385;-50
2022/09/26 02:47:48;;;;;;;3.60;1.48;;;;;;;12.50;nan;100395.81;5037371;28;20048;-55
2022/09/26 02:50:32;;;;;;;6.22;2.00;;;;;;;12.67;nan;100418.78;5015659;28;20436;-56
2022/09/26 02:53:06;;;;;;;2.55;1.65;;;;;;;12.64;nan;100427.69;5023523;28;20026;-52
2022/09/26 02:55:50;;;;;;;2.83;1.33;;;;;;;12.64;nan;100411.84;5025591;28;20041;-51
2022/09/26 02:58:50;;;;;;;2.92;1.65;;;;;;;12.52;nan;100396.59;5030489;28;20105;-55
2022/09/26 03:01:55;;;;;;;6.55;1.52;;;;;;;12.64;nan;100392.53;5016104;28;20037;-51
2022/09/26 03:04:49;;;;;;;3.25;1.70;;;;;;;12.61;nan;100396.16;4977711;28;20029;-53
2022/09/26 03:07:44;;;;;;;4.65;1.55;;;;;;;12.52;nan;100370.19;5031922;28;20055;-52
2022/09/26 03:10:10;;;;;;;3.38;1.50;;;;;;;12.56;nan;100381.47;5013067;28;20064;-56
2022/09/26 03:12:37;;;;;;;4.40;1.42;;;;;;;12.49;nan;100362.44;5030783;28;20067;-54
2022/09/26 03:15:03;;;;;;;2.03;1.48;;;;;;;12.15;nan;100299.84;5031717;28;20092;-57
2022/09/26 03:17:30;;;;;;;5.32;1.55;;;;;;;12.53;nan;100366.63;5030569;28;20099;-56
2022/09/26 03:20:16;;;;;;;4.32;2.40;;;;;;;12.13;nan;100299.06;5033209;28;20037;-54
2022/09/26 03:22:42;;;;;;;3.15;1.52;;;;;;;12.43;nan;100336.34;5005259;28;20033;-53
2022/09/26 03:25:09;;;;;;;3.88;1.75;;;;;;;12.52;nan;100350.88;5034522;28;20049;-55
2022/09/26 03:27:36;;;;;;;3.22;1.63;;;;;;;12.53;nan;100342.00;5035823;28;20112;-54
2022/09/26 03:30:02;;;;;;;4.03;1.52;;;;;;;12.29;nan;100292.09;5019382;28;20049;-54
2022/09/26 03:32:28;;;;;;;3.90;1.50;;;;;;;12.27;nan;100290.47;5034581;28;20041;-55
2022/09/26 03:34:53;;;;;;;3.88;1.67;;;;;;;12.48;nan;100328.19;5027431;28;20400;-56
2022/09/26 03:37:19;;;;;;;5.22;1.40;;;;;;;12.53;nan;100327.03;5027798;28;20048;-54
2022/09/26 03:39:44;;;;;;;1.95;1.13;;;;;;;12.21;nan;100259.09;5031175;28;20038;-52
2022/09/26 03:42:09;;;;;;;2.53;1.20;;;;;;;12.53;nan;100313.84;5014530;28;20460;-57
2022/09/26 03:44:35;;;;;;;6.68;1.63;;;;;;;12.51;nan;100302.50;5014533;28;20532;-55
2022/09/26 03:47:00;;;;;;;3.58;1.35;;;;;;;12.11;nan;100247.31;5015955;28;20496;-53
2022/09/26 03:49:25;;;;;;;2.80;1.13;;;;;;;12.08;nan;100237.75;5027402;28;20045;-51
2022/09/26 03:51:51;;;;;;;3.20;1.77;;;;;;;12.38;nan;100290.81;5035270;28;20032;-55
2022/09/26 03:54:16;;;;;;;4.05;1.90;;;;;;;11.95;nan;100218.16;5018762;28;20075;-56
2022/09/26 03:56:41;;;;;;;3.55;1.48;;;;;;;12.26;nan;100286.13;5028542;28;20496;-57
2022/09/26 03:59:07;;;;;;;4.32;1.75;;;;;;;12.04;nan;100237.97;5024469;28;20041;-52
2022/09/26 04:01:33;;;;;;;5.50;1.40;;;;;;;12.11;nan;100255.22;5021464;28;20396;-54
2022/09/26 04:03:58;;;;;;;2.90;1.25;;;;;;;12.08;nan;100263.28;5031857;28;20088;-55
2022/09/26 04:06:23;;;;;;;5.15;1.50;;;;;;;11.97;nan;100236.53;5019676;28;20029;-56
2022/09/26 04:08:50;;;;;;;5.80;1.40;;;;;;;11.72;nan;100192.03;5034103;28;20111;-53
2022/09/26 04:11:18;;;;;;;2.92;1.30;;;;;;;11.89;nan;100222.84;5033795;28;20120;-51
2022/09/26 04:13:44;;;;;;;2.70;1.48;;;;;;;11.64;nan;100178.31;5034626;28;20512;-57
2022/09/26 04:16:10;;;;;;;5.15;1.45;;;;;;;11.76;nan;100197.06;5018450;28;20034;-51
2022/09/26 04:18:36;;;;;;;3.60;1.40;;;;;;;11.74;nan;100192.78;5033924;28;20025;-51
2022/09/26 04:21:07;;;;;;;1.90;1.35;;;;;;;11.42;nan;100138.91;5024442;28;20404;-50
2022/09/26 04:23:34;;;;;;;5.28;1.48;;;;;;;11.44;nan;100136.22;5015709;28;20457;-54
2022/09/26 04:26:10;;;;;;;2.03;1.50;;;;;;;11.68;nan;100182.50;5031261;28;20049;-54
2022/09/26 04:28:37;;;;;;;4.38;1.58;;;;;;;11.66;nan;100185.22;5020827;28;20045;-54
2022/09/26 04:31:03;;;;;;;4.60;1.30;;;;;;;11.66;nan;100181.72;5025362;28;20401;-50
2022/09/26 04:33:31;;;;;;;4.13;1.48;;;;;;;11.66;nan;100165.91;5009343;28;20037;-56
2022/09/26 04:35:59;;;;;;;5.10;2.00;;;;;;;11.33;nan;100094.56;5018279;28;20025;-50
2022/09/26 04:38:30;;;;;;;3.55;1.55;;;;;;;11.34;nan;100082.25;5029768;28;20429;-54
2022/09/26 04:40:56;;;;;;;4.13;1.70;;;;;;;11.72;nan;100140.16;5014456;28;20121;-51
2022/09/26 04:43:21;;;;;;;3.75;1.52;;;;;;;11.53;nan;100098.91;5015014;28;20519;-53
2022/09/26 04:45:46;;;;;;;9.30;1.98;;;;;;;11.77;nan;100126.72;5030264;28;20056;-53
2022/09/26 04:48:12;;;;;;;4.25;1.85;;;;;;;11.75;nan;100121.53;5029814;28;20038;-53
2022/09/26 04:50:38;;;;;;;4.50;1.52;;;;;;;11.72;nan;100099.75;5015004;28;20033;-55
2022/09/26 04:53:05;;;;;;;3.78;1.48;;;;;;;11.56;nan;100059.19;5014562;28;20040;-50
2022/09/26 04:55:31;;;;;;;4.38;1.75;;;;;;;11.98;nan;100124.84;5014214;28;20097;-56
2022/09/26 04:57:56;;;;;;;3.72;1.50;;;;;;;11.76;nan;100075.78;5030962;28;20045;-53
2022/09/26 05:00:22;;;;;;;4.82;1.85;;;;;;;11.91;nan;100086.53;5018517;28;20030;-54
2022/09/26 05:02:47;;;;;;;4.03;1.65;;;;;;;12.03;nan;100105.22;5026794;28;20026;-54
2022/09/26 05:05:14;;;;;;;3.20;1.40;;;;;;;12.05;nan;100103.38;5025060;28;20037;-55
2022/09/26 05:07:40;;;;;;;4.65;1.42;;;;;;;11.78;nan;100050.22;5032740;28;20030;-56
2022/09/26 05:10:09;;;;;;;2.75;1.83;;;;;;;11.80;nan;100037.78;5025923;28;20041;-54
2022/09/26 05:12:38;;;;;;;6.30;2.17;;;;;;;11.80;nan;100036.94;5028026;28;20394;-54
2022/09/26 05:15:05;;;;;;;9.27;1.70;;;;;;;12.09;nan;100072.38;5014287;28;20046;-55
2022/09/26 05:17:31;;;;;;;3.15;1.67;;;;;;;11.78;nan;100023.84;5027622;28;20029;-53
2022/09/26 05:19:57;;;;;;;2.85;1.38;;;;;;;11.83;nan;100029.72;5017409;28;20472;-55
2022/09/26 05:22:22;;;;;;;5.78;2.22;;;;;;;11.76;nan;100007.22;5029910;28;20030;-51
2022/09/26 05:27:31;;;;;;;6.22;2.38;;;;;;;11.69;nan;99991.78;5020404;28;20049;-51
2022/09/26 05:29:56;;;;;;;4.57;1.88;;;;;;;11.70;nan;99985.63;5030209;28;20037;-52
2022/09/26 05:32:22;;;;;;;2.90;1.83;;;;;;;12.06;nan;100044.38;5017790;28;20033;-51
2022/09/26 05:34:47;;;;;;;3.85;1.80;;;;;;;12.06;nan;100017.16;5026324;28;20389;-56
2022/09/26 05:37:13;;;;;;;4.50;1.58;;;;;;;12.06;nan;100019.78;5012966;28;20036;-50
2022/09/26 05:42:22;;;;;;;4.25;1.38;;;;;;;12.09;nan;100014.34;5013127;28;20049;-53
2022/09/26 05:44:48;;;;;;;2.85;1.75;;;;;;;11.77;nan;99956.22;5013355;28;20045;-49
2022/09/26 05:47:13;;;;;;;3.55;1.60;;;;;;;12.06;nan;99988.13;5028998;28;20465;-53
2022/09/26 05:49:38;;;;;;;3.85;1.60;;;;;;;12.02;nan;99984.81;5012406;28;20042;-52
2022/09/26 05:52:04;;;;;;;6.15;1.73;;;;;;;12.01;nan;99976.97;5013658;28;20125;-52
2022/09/26 05:54:29;;;;;;;6.22;1.90;;;;;;;12.11;nan;99999.31;5013432;28;20397;-52
2022/09/26 05:56:55;;;;;;;4.38;1.92;;;;;;;11.77;nan;99947.44;5013354;28;20034;-49
2022/09/26 05:59:21;;;;;;;7.70;2.00;;;;;;;12.15;nan;99995.56;5013406;28;20038;-55
2022/09/26 06:01:46;;;;;;;6.28;1.70;;;;;;;12.07;nan;99977.53;5012151;28;20037;-57
2022/09/26 06:04:12;;;;;;;3.53;1.55;;;;;;;12.20;nan;99980.38;5013367;28;20038;-55
2022/09/26 06:06:37;;;;;;;2.90;1.40;;;;;;;12.15;nan;99966.56;5012917;28;20052;-50
2022/09/26 06:09:02;;;;;;;7.72;1.52;;;;;;;12.24;nan;99966.94;5012223;28;20042;-55
2022/09/26 06:11:29;;;;;;;3.63;2.10;;;;;;;12.02;nan;99937.34;5011462;28;20451;-57
2022/09/26 06:13:56;;;;;;;5.32;1.70;;;;;;;11.57;nan;99853.56;5013429;28;20053;-58
2022/09/26 06:16:22;;;;;;;4.40;1.98;;;;;;;12.22;nan;99968.81;5011540;28;20029;-57
2022/09/26 06:18:49;;;;;;;3.65;1.52;;;;;;;12.21;nan;99953.91;5010760;28;20022;-57
2022/09/26 06:21:16;;;;;;;6.22;2.10;;;;;;;11.86;nan;99878.41;5013276;28;20116;-54
2022/09/26 06:23:41;;;;;;;4.80;1.55;;;;;;;12.21;nan;99948.63;5012449;28;20084;-57
2022/09/26 06:26:09;;;;;;;6.25;1.83;;;;;;;12.19;nan;99941.72;5013341;28;20065;-53
2022/09/26 06:28:35;;;;;;;4.80;2.47;;;;;;;12.14;nan;99920.84;5011755;28;20029;-53
2022/09/26 06:31:14;;;;;;;7.47;1.80;;;;;;;12.16;nan;99908.44;5011879;28;20068;-53
2022/09/26 06:33:40;;;;;;;5.32;2.00;;;;;;;11.63;nan;99791.75;5011905;28;20080;-60
2022/09/26 06:36:07;;;;;;;4.32;1.50;;;;;;;12.25;nan;99912.38;4995465;28;20030;-52
2022/09/26 06:38:32;;;;;;;3.05;1.73;;;;;;;12.24;nan;99898.34;5011892;28;20045;-50
2022/09/26 06:40:58;;;;;;;4.57;2.13;;;;;;;12.27;nan;99897.31;5011453;28;20034;-59
2022/09/26 06:43:23;;;;;;;6.60;2.30;;;;;;;12.20;nan;99872.22;5011752;28;20133;-57
2022/09/26 06:45:49;;;;;;;5.57;1.98;;;;;;;12.01;nan;99816.94;5012467;28;20084;-57
2022/09/26 06:48:15;;;;;;;4.50;2.00;;;;;;;12.28;nan;99864.72;5011980;28;20155;-57
2022/09/26 06:50:41;;;;;;;9.15;2.25;;;;;;;12.29;nan;99855.84;5012951;28;20083;-56
2022/09/26 06:53:06;;;;;;;4.03;1.70;;;;;;;12.22;nan;99820.19;5012976;28;20038;-56
2022/09/26 06:55:32;;;;;;;6.43;2.47;;;;;;;12.17;nan;99796.69;5012014;28;20046;-54
2022/09/26 06:57:57;;;;;;;8.65;2.10;;;;;;;12.58;nan;99860.38;5011417;28;20033;-53
2022/09/26 07:00:23;;;;;;;3.85;1.65;;;;;;;12.55;nan;99865.81;5012668;28;20030;-58
2022/09/26 07:02:53;;;;;;;7.35;1.75;;;;;;;12.58;nan;99870.94;5011232;28;20077;-57
2022/09/26 07:05:19;;;;;;;4.00;1.63;;;;;;;12.58;nan;99859.53;5011428;28;20041;-53
2022/09/26 07:07:47;;;;;;;7.03;1.90;;;;;;;12.36;nan;99815.00;5011132;28;20061;-54
2022/09/26 07:10:14;;;;;;;5.45;2.10;;;;;;;12.58;nan;99839.25;5012508;28;20033;-53
2022/09/26 07:12:42;;;;;;;4.40;1.80;;;;;;;12.68;nan;99850.16;5011191;28;20117;-58
2022/09/26 07:15:09;;;;;;;4.00;1.70;;;;;;;12.70;nan;99853.53;5010887;28;20615;-57
2022/09/26 07:17:35;;;;;;;4.32;1.92;;;;;;;12.47;nan;99814.41;5011214;28;20053;-55
2022/09/26 07:20:01;;;;;;;4.82;2.03;;;;;;;12.60;nan;99828.63;5012680;28;20054;-57
2022/09/26 07:22:26;;;;;;;7.10;1.80;;;;;;;12.60;nan;99825.97;5011225;28;20026;-57
2022/09/26 07:24:51;;;;;;;7.78;2.33;;;;;;;12.56;nan;99806.81;5012272;28;20052;-55
2022/09/26 07:27:16;;;;;;;3.65;2.08;;;;;;;12.04;nan;99720.97;5012383;28;20066;-56
2022/09/26 07:29:44;;;;;;;10.63;2.10;;;;;;;12.52;nan;99818.47;5012331;28;20484;-57
2022/09/26 07:32:10;;;;;;;5.60;2.10;;;;;;;12.51;nan;99815.94;5011085;28;20481;-57
2022/09/26 07:34:35;;;;;;;4.07;1.95;;;;;;;12.40;nan;99793.63;4994884;28;20034;-55
2022/09/26 07:37:01;;;;;;;4.78;2.30;;;;;;;12.18;nan;99764.09;5010746;28;20038;-55
2022/09/26 07:39:26;;;;;;;4.22;1.92;;;;;;;12.38;nan;99795.50;5011302;28;20041;-55
2022/09/26 07:41:52;;;;;;;3.40;1.80;;;;;;;12.47;nan;99799.41;5011065;28;20413;-57
2022/09/26 07:44:17;;;;;;;2.88;1.80;;;;;;;12.59;nan;99798.72;5009621;28;20077;-57
2022/09/26 07:52:10;;;;;;;4.85;1.88;;;;;;;12.34;nan;99741.22;5011565;28;20060;-57
2022/09/26 07:54:35;;;;;;;4.07;2.10;;;;;;;12.66;nan;99801.88;5009644;28;20420;-56
2022/09/26 07:57:03;;;;;;;11.52;2.25;;;;;;;12.70;nan;99787.53;5009693;28;20041;-58
2022/09/26 07:59:35;;;;;;;5.43;2.33;;;;;;;12.70;nan;99790.19;5011060;28;20030;-56
2022/09/26 08:02:01;;;;;;;6.35;2.35;;;;;;;12.69;nan;99776.16;5011069;28;20041;-57
2022/09/26 08:04:28;;;;;;;3.90;1.67;;;;;;;12.53;nan;99753.34;5010601;28;20042;-59
2022/09/26 08:06:54;;;;;;;7.82;2.30;;;;;;;12.39;nan;99746.22;5026971;28;20426;-59
2022/09/26 08:09:20;;;;;;;3.30;1.60;;;;;;;12.34;nan;99743.84;4996736;28;20034;-55
2022/09/26 08:11:46;;;;;;;7.40;2.58;;;;;;;12.13;nan;99709.91;5014599;28;20079;-53
2022/09/26 08:14:12;;;;;;;6.13;2.47;;;;;;;12.38;nan;99760.34;5013095;28;20050;-58
2022/09/26 08:16:40;;;;;;;7.22;2.00;;;;;;;12.06;nan;99693.56;5014386;28;20370;-57
2022/09/26 08:19:07;;;;;;;3.97;2.42;;;;;;;12.37;nan;99751.56;5014480;28;20048;-59
2022/09/26 08:21:32;;;;;;;9.23;2.85;;;;;;;11.78;nan;99652.09;5013021;28;20389;-57
2022/09/26 08:23:58;;;;;;;5.13;2.30;;;;;;;12.00;nan;99698.34;5014356;28;20030;-55
2022/09/26 08:26:23;;;;;;;5.90;2.30;;;;;;;12.27;nan;99739.00;5029547;28;20034;-57
2022/09/26 08:28:48;;;;;;;8.38;2.85;;;;;;;12.01;nan;99714.09;5014365;28;20034;-57
2022/09/26 08:31:15;;;;;;;4.68;2.50;;;;;;;12.22;nan;99741.06;5014386;28;20030;-58
2022/09/26 08:33:40;;;;;;;8.20;3.08;;;;;;;12.09;nan;99711.88;5013942;28;20034;-55
2022/09/26 08:36:08;;;;;;;6.15;2.90;;;;;;;12.10;nan;99726.75;5013911;28;20103;-56
2022/09/26 08:38:35;;;;;;;4.35;2.67;;;;;;;11.88;nan;99699.03;5012588;28;20061;-55
2022/09/26 08:41:31;;;;;;;6.50;3.05;;;;;;;12.13;nan;99725.75;5012756;28;20092;-56
2022/09/26 08:44:29;;;;;;;8.50;3.30;;;;;;;12.09;nan;99716.28;5014053;28;20091;-55
2022/09/26 08:47:16;;;;;;;12.60;4.00;;;;;;;11.64;nan;99645.84;4996747;28;20189;-55
2022/09/26 08:50:11;;;;;;;13.18;4.55;;;;;;;12.06;nan;99716.44;5013932;28;20074;-56
2022/09/26 08:52:37;;;;;;;8.48;4.47;;;;;;;12.05;nan;99702.44;5012197;28;20064;-58
2022/09/26 08:55:25;;;;;;;8.57;4.32;;;;;;;11.71;nan;99634.06;5012063;28;20042;-54
2022/09/26 08:57:54;;;;;;;6.78;4.25;;;;;;;12.07;nan;99697.06;5012472;28;20437;-55
2022/09/26 09:00:21;;;;;;;9.93;4.18;;;;;;;11.83;nan;99654.47;5013490;28;20160;-57
2022/09/26 09:03:15;;;;;;;9.90;4.18;;;;;;;11.93;nan;99660.94;5013340;28;20041;-55
2022/09/26 09:06:25;;;;;;;6.97;4.65;;;;;;;12.07;nan;99683.88;5011787;28;20119;-55
2022/09/26 09:08:51;;;;;;;6.03;4.03;;;;;;;11.79;nan;99610.78;4971924;28;20054;-59
2022/09/26 09:11:37;;;;;;;9.57;4.63;;;;;;;12.16;nan;99670.16;4971808;28;20039;-60
2022/09/26 09:14:09;;;;;;;8.55;4.57;;;;;;;12.29;nan;99676.44;4996041;28;20112;-54
2022/09/26 09:16:52;;;;;;;8.88;4.90;;;;;;;12.25;nan;99664.38;5013376;28;20030;-55
2022/09/26 09:19:29;;;;;;;10.07;5.05;;;;;;;12.32;nan;99666.56;5013002;28;20041;-52
2022/09/26 09:22:14;;;;;;;7.72;4.82;;;;;;;12.40;nan;99660.84;5013289;28;20689;-59
2022/09/26 09:24:51;;;;;;;8.98;5.30;;;;;;;12.50;nan;99659.34;5011701;28;20132;-55
2022/09/26 09:27:34;;;;;;;7.90;5.00;;;;;;;12.55;nan;99652.00;5011843;28;20030;-57
2022/09/26 09:29:59;;;;;;;8.00;4.43;;;;;;;12.59;nan;99653.53;5013184;28;20124;-53
2022/09/26 09:32:30;;;;;;;11.13;4.53;;;;;;;12.48;nan;99655.97;5013199;28;20188;-56
2022/09/26 09:34:56;;;;;;;9.73;4.97;;;;;;;12.43;nan;99654.53;5011948;28;20091;-55
2022/09/26 09:37:25;;;;;;;6.20;4.40;;;;;;;12.26;nan;99627.31;5012039;28;20030;-54
2022/09/26 09:39:51;;;;;;;6.70;4.18;;;;;;;12.40;nan;99652.94;5011867;28;20057;-53
2022/09/26 09:42:40;;;;;;;7.18;4.60;;;;;;;11.98;nan;99584.19;5013074;28;20038;-55
2022/09/26 09:45:14;;;;;;;5.70;4.57;;;;;;;12.33;nan;99643.66;5011550;28;20644;-56
2022/09/26 09:47:40;;;;;;;7.93;4.85;;;;;;;12.35;nan;99641.78;5011954;28;20071;-58
2022/09/26 09:50:31;;;;;;;7.15;4.82;;;;;;;12.33;nan;99636.59;5012616;28;20121;-51
2022/09/26 09:53:23;;;;;;;8.27;4.32;;;;;;;12.38;nan;99641.59;5012360;28;20449;-55
2022/09/26 09:56:07;;;;;;;5.55;4.47;;;;;;;12.36;nan;99649.63;5012687;28;20042;-58
2022/09/26 09:58:45;;;;;;;6.97;4.30;;;;;;;12.37;nan;99655.75;5013585;28;20044;-54
2022/09/26 10:01:18;;;;;;;5.10;4.47;;;;;;;12.07;nan;99594.19;5012421;28;20108;-52
2022/09/26 10:03:43;;;;;;;7.13;4.13;;;;;;;12.33;nan;99641.88;5011880;28;20108;-56
2022/09/26 10:06:10;;;;;;;6.82;3.90;;;;;;;12.25;nan;99638.84;5013477;28;20471;-54
2022/09/26 10:08:39;;;;;;;5.80;3.78;;;;;;;11.90;nan;99582.00;5013361;28;20084;-59
2022/09/26 10:11:17;;;;;;;4.53;3.92;;;;;;;12.27;nan;99641.38;5012328;28;20026;-52
2022/09/26 10:13:44;;;;;;;4.22;3.25;;;;;;;12.30;nan;99636.78;5012098;28;20482;-54
2022/09/26 10:16:13;;;;;;;3.22;3.00;;;;;;;12.07;nan;99578.38;5012045;28;20033;-55
2022/09/26 10:18:52;;;;;;;4.72;3.35;;;;;;;12.34;nan;99624.25;5011863;28;20045;-58
2022/09/26 10:21:17;;;;;;;4.70;3.33;;;;;;;12.03;nan;99569.78;5013463;28;20038;-58
2022/09/26 10:23:46;;;;;;;2.88;2.67;;;;;;;12.28;nan;99612.28;5011963;28;20504;-58
2022/09/26 10:26:12;;;;;;;4.90;2.90;;;;;;;12.36;nan;99623.22;5011902;28;20041;-52
2022/09/26 10:28:51;;;;;;;3.40;3.10;;;;;;;12.09;nan;99576.50;5011780;28;20061;-57
2022/09/26 10:31:36;;;;;;;4.07;2.60;;;;;;;12.25;nan;99625.66;5010940;28;20044;-57
2022/09/26 10:34:05;;;;;;;5.10;2.90;;;;;;;12.26;nan;99623.84;5012865;28;20103;-56
2022/09/26 10:36:35;;;;;;;2.90;2.33;;;;;;;12.27;nan;99618.47;5013219;28;20083;-58
2022/09/26 10:42:00;;;;;;;3.22;2.92;;;;;;;12.38;nan;99631.88;5012972;28;20048;-57
2022/09/26 10:44:33;;;;;;;3.95;2.33;;;;;;;12.45;nan;99627.09;5011430;28;20026;-53
2022/09/26 10:47:07;;;;;;;2.80;2.38;;;;;;;12.15;nan;99566.44;5013013;28;20026;-57
2022/09/26 10:49:44;;;;;;;3.78;2.10;;;;;;;12.14;nan;99548.06;5012761;28;20229;-55
2022/09/26 10:52:22;;;;;;;2.83;2.63;;;;;;;12.23;nan;99561.53;5011757;28;20061;-59
2022/09/26 10:55:03;;;;;;;2.72;2.47;;;;;;;12.59;nan;99623.63;5012617;28;20030;-59
2022/09/26 10:57:58;;;;;;;3.42;2.70;;;;;;;12.56;nan;99621.19;5012629;28;20034;-57
2022/09/26 11:00:24;;;;;;;3.38;3.08;;;;;;;12.56;nan;99622.03;5004145;28;20062;-50
2022/09/26 11:02:51;;;;;;;4.63;2.95;;;;;;;12.30;nan;99562.03;5012681;28;20069;-57
2022/09/26 11:08:05;;;;;;;4.53;3.85;;;;;;;12.64;nan;99598.66;5012454;28;20052;-56
2022/09/26 11:10:31;;;;;;;3.45;3.15;;;;;;;12.44;nan;99556.78;5012345;28;20425;-58
2022/09/26 11:13:02;;;;;;;3.97;3.55;;;;;;;12.46;nan;99554.06;5012423;28;20063;-57
2022/09/26 11:15:28;;;;;;;;;;;;;;;12.77;nan;99614.63;5011770;28;20058;-58
2022/09/26 11:17:54;;;;;;;6.10;4.15;;;;;;;12.74;nan;99606.88;5012644;28;19920;-59
2022/09/26 11:20:44;;;;;;;4.80;4.13;;;;;;;12.77;nan;99583.78;5027572;28;20053;-57
2022/09/26 11:23:17;;;;;;;4.50;4.03;;;;;;;12.97;nan;99604.53;5010900;28;20057;-59
2022/09/26 11:25:55;;;;;;;4.45;3.80;;;;;;;13.02;nan;99590.22;5011138;28;20045;-59
2022/09/26 11:28:33;;;;;;;4.47;3.40;;;;;;;12.72;nan;99525.16;5011313;28;20065;-60
2022/09/26 11:31:04;;;;;;;3.70;2.65;;;;;;;12.95;nan;99529.84;5012452;28;20113;-56
2022/09/26 11:33:29;;;;;;;3.13;2.85;;;;;;;13.27;nan;99558.69;5011005;28;20034;-60
2022/09/26 11:36:15;;;;;;;3.35;3.05;;;;;;;13.64;nan;99583.59;5011313;28;20076;-57
2022/09/26 11:38:55;;;;;;;3.30;3.05;;;;;;;13.47;nan;99534.47;5011054;28;20030;-59
2022/09/26 11:41:40;;;;;;;2.97;2.70;;;;;;;13.89;nan;99583.72;5011103;28;20022;-60
2022/09/26 11:44:18;;;;;;;3.50;3.20;;;;;;;13.87;nan;99590.88;5016049;28;20030;-59
2022/09/26 11:47:21;;;;;;;5.03;3.63;;;;;;;13.78;nan;99579.13;5016320;28;20497;-61
2022/09/26 11:49:55;;;;;;;3.55;3.08;;;;;;;13.74;nan;99582.06;5016011;28;20112;-60
2022/09/26 11:52:28;;;;;;;3.50;3.25;;;;;;;13.71;nan;99584.91;5015801;28;20099;-60
2022/09/26 11:55:02;;;;;;;3.95;3.50;;;;;;;13.76;nan;99580.16;5015736;28;20041;-60
2022/09/26 11:58:02;;;;;;;3.45;3.20;;;;;;;13.76;nan;99575.72;5015654;28;20084;-59
2022/09/26 12:00:54;;;;;;;2.85;2.65;;;;;;;13.58;nan;99553.13;5015737;28;20037;-58
2022/09/26 12:03:42;;;;;;;3.78;2.22;;;;;;;13.69;nan;99563.03;5015962;28;20034;-58
2022/09/26 12:06:26;;;;;;;3.42;2.70;;;;;;;13.73;nan;99570.63;5015708;28;20461;-59
2022/09/26 12:09:17;;;;;;;2.20;2.10;;;;;;;13.77;nan;99563.38;5015882;28;20026;-57
2022/09/26 12:11:54;;;;;;;;;;;;;;;13.69;nan;99569.13;5016139;28;20030;-59
2022/09/26 12:14:55;;;;;;;2.20;2.03;;;;;;;13.69;nan;99573.59;5014413;28;19917;-62
2022/09/26 12:17:42;;;;;;;2.67;2.20;;;;;;;13.56;nan;99572.69;5007955;28;20038;-59
2022/09/26 12:20:37;;;;;;;2.45;2.25;;;;;;;13.52;nan;99577.31;4997972;28;20168;-59
2022/09/26 12:23:22;;;;;;;2.25;2.03;;;;;;;13.52;nan;99572.88;5013893;28;20029;-56